Time;durP1;ratioP1;P1;durP2;ratioP2;P2;SDS_P1;SDS_P2;PMS_P1;PMS_P2;Temp;Humidity;BMP_temperature;BMP_pressure;BME280_temperature;BME280_humidity;BME280_pressure;Samples;Min_cycle;Max_cycle;Signal;HPM_P1;HPM_P2
2022/04/07 00:00:16;;;;;;;9.98;2.55;;;;;;;9.12;92.92;98978.47;5055231;28;20425;-73
2022/04/07 00:02:42;;;;;;;8.65;2.72;;;;;;;9.17;92.89;98971.66;5055276;28;20104;-73
2022/04/07 00:05:07;;;;;;;12.00;3.20;;;;;;;9.12;93.53;98968.16;5055218;28;20053;-73
2022/04/07 00:07:33;;;;;;;12.77;2.78;;;;;;;9.12;93.99;98973.31;5055454;28;20544;-73
2022/04/07 00:09:58;;;;;;;12.55;2.92;;;;;;;9.12;93.62;98973.31;5053932;28;20033;-73
2022/04/07 00:12:23;;;;;;;14.70;2.70;;;;;;;9.07;93.85;98966.28;5055152;28;20021;-72
2022/04/07 00:14:49;;;;;;;7.85;2.42;;;;;;;9.04;93.80;98959.75;5055200;28;20017;-72
2022/04/07 00:17:14;;;;;;;6.40;2.20;;;;;;;8.92;95.18;98956.38;5053887;28;20024;-71
2022/04/07 00:19:39;;;;;;;9.85;2.80;;;;;;;8.91;95.28;98961.75;5036984;28;20024;-71
2022/04/07 00:22:04;;;;;;;12.75;2.70;;;;;;;8.82;96.36;98956.91;5054081;28;20032;-72
2022/04/07 00:24:30;;;;;;;8.73;2.80;;;;;;;8.79;96.93;98944.47;5054797;28;20084;-73
2022/04/07 00:26:55;;;;;;;15.52;3.25;;;;;;;8.73;97.66;98937.63;5054890;28;20028;-72
2022/04/07 00:29:20;;;;;;;11.30;3.03;;;;;;;8.71;97.64;98929.31;5054839;28;20071;-72
2022/04/07 00:31:46;;;;;;;15.48;2.92;;;;;;;8.63;97.78;98927.06;5036838;28;20495;-72
2022/04/07 00:34:11;;;;;;;9.48;2.50;;;;;;;8.64;98.66;98922.69;5054746;28;20028;-71
2022/04/07 00:36:37;;;;;;;9.52;2.67;;;;;;;8.63;98.15;98913.38;5054786;28;20017;-73
2022/04/07 00:39:03;;;;;;;18.90;4.13;;;;;;;8.57;98.64;98912.47;5053357;28;20020;-71
2022/04/07 00:41:29;;;;;;;8.95;2.30;;;;;;;8.64;98.56;98905.47;5054443;28;20490;-72
2022/04/07 00:43:54;;;;;;;13.38;2.80;;;;;;;8.66;97.56;98902.66;5054458;28;20029;-72
2022/04/07 00:46:20;;;;;;;15.57;2.60;;;;;;;8.70;97.71;98912.28;5054502;28;20048;-72
2022/04/07 00:48:45;;;;;;;15.40;2.75;;;;;;;8.76;97.33;98895.19;5054450;28;20024;-72
2022/04/07 00:51:11;;;;;;;18.55;2.95;;;;;;;8.82;96.70;98904.59;5054402;28;20384;-72
2022/04/07 00:53:37;;;;;;;16.67;2.88;;;;;;;8.80;96.88;98889.38;5053053;28;20031;-72
2022/04/07 00:56:03;;;;;;;14.25;2.53;;;;;;;8.82;95.66;98896.88;5054438;28;20099;-73
2022/04/07 00:58:29;;;;;;;11.23;2.80;;;;;;;8.86;95.33;98890.28;5054113;28;20021;-73
2022/04/07 01:00:56;;;;;;;15.07;2.60;;;;;;;8.92;94.86;98881.66;5054125;28;20393;-73
2022/04/07 01:03:22;;;;;;;17.35;3.03;;;;;;;8.93;95.14;98879.88;5054232;28;20028;-73
2022/04/07 01:05:49;;;;;;;16.17;2.95;;;;;;;8.91;94.67;98881.88;5052888;28;20032;-72
2022/04/07 01:08:14;;;;;;;15.40;2.88;;;;;;;8.94;94.16;98881.44;5053831;28;20041;-72
2022/04/07 01:10:40;;;;;;;24.20;3.38;;;;;;;9.07;93.27;98867.56;5036142;28;20025;-72
2022/04/07 01:13:06;;;;;;;12.55;2.40;;;;;;;8.98;93.98;98864.53;5054117;28;20032;-72
2022/04/07 01:15:31;;;;;;;9.82;2.17;;;;;;;8.95;94.01;98859.84;5036023;28;20028;-72
2022/04/07 01:17:58;;;;;;;10.45;2.53;;;;;;;8.99;92.82;98858.38;5052532;28;20021;-72
2022/04/07 01:20:23;;;;;;;20.15;2.80;;;;;;;8.98;93.05;98841.34;5053888;28;20417;-72
2022/04/07 01:22:51;;;;;;;14.35;2.63;;;;;;;9.03;92.84;98844.84;5053848;28;20110;-72
2022/04/07 01:25:17;;;;;;;19.17;2.72;;;;;;;9.03;92.67;98841.44;5053850;28;20032;-71
2022/04/07 01:27:48;;;;;;;13.30;2.60;;;;;;;9.08;92.33;98846.72;5053731;28;20389;-72
2022/04/07 01:30:14;;;;;;;17.27;2.67;;;;;;;9.06;92.26;98820.38;5052252;28;20437;-72
2022/04/07 01:32:56;;;;;;;11.50;2.67;;;;;;;9.04;92.22;98810.31;5053735;28;20028;-73
2022/04/07 01:35:24;;;;;;;12.88;3.00;;;;;;;8.99;92.62;98810.19;5052637;28;20108;-72
2022/04/07 01:37:52;;;;;;;15.35;2.92;;;;;;;9.03;92.83;98797.66;5052259;28;20025;-72
2022/04/07 01:40:21;;;;;;;13.85;2.67;;;;;;;8.95;93.22;98792.84;5053540;28;20032;-72
2022/04/07 01:42:50;;;;;;;21.05;3.45;;;;;;;8.90;94.32;98790.16;5053319;28;20021;-71
2022/04/07 01:45:16;;;;;;;19.35;2.85;;;;;;;8.74;96.44;98771.78;5053399;28;20029;-71
2022/04/07 01:47:43;;;;;;;18.52;3.15;;;;;;;8.65;97.74;98773.13;5053399;28;20082;-71
2022/04/07 01:50:11;;;;;;;16.60;3.03;;;;;;;8.58;98.83;98765.50;5053240;28;20028;-70
2022/04/07 01:52:38;;;;;;;15.55;3.92;;;;;;;8.54;99.74;98758.44;5035109;28;20033;-72
2022/04/07 01:55:04;;;;;;;15.95;2.70;;;;;;;8.48;100.00;98749.81;5053239;28;20388;-71
2022/04/07 01:57:31;;;;;;;20.00;3.08;;;;;;;8.49;100.00;98730.03;5053109;28;20063;-71
2022/04/07 01:59:57;;;;;;;15.10;2.72;;;;;;;8.56;99.64;98735.84;5053015;28;20083;-71
2022/04/07 02:02:23;;;;;;;13.50;2.92;;;;;;;8.58;99.88;98729.47;5053083;28;20484;-72
2022/04/07 02:04:59;;;;;;;16.10;3.63;;;;;;;8.53;99.80;98736.28;5051804;28;20056;-71
2022/04/07 02:07:29;;;;;;;21.58;3.35;;;;;;;8.60;98.63;98726.66;5052871;28;20079;-71
2022/04/07 02:09:55;;;;;;;16.92;3.53;;;;;;;8.59;98.86;98714.78;5053128;28;20031;-71
2022/04/07 02:12:20;;;;;;;16.92;3.22;;;;;;;8.64;97.94;98712.34;5053086;28;20049;-72
2022/04/07 02:14:50;;;;;;;17.98;3.13;;;;;;;8.60;98.29;98698.34;5052991;28;20048;-71
2022/04/07 02:17:20;;;;;;;29.23;4.50;;;;;;;8.67;98.86;98709.31;5035060;28;20070;-71
2022/04/07 02:19:54;;;;;;;14.50;3.17;;;;;;;8.60;99.04;98706.06;5053017;28;20116;-71
2022/04/07 02:22:20;;;;;;;26.52;3.78;;;;;;;8.58;98.84;98698.56;5052886;28;20025;-71
2022/04/07 02:24:46;;;;;;;19.75;3.88;;;;;;;8.51;100.00;98713.34;5052793;28;20542;-71
2022/04/07 02:27:12;;;;;;;14.85;3.10;;;;;;;8.44;100.00;98712.66;5051575;28;20021;-71
2022/04/07 02:29:37;;;;;;;18.50;3.42;;;;;;;8.38;100.00;98705.03;5052825;28;20029;-71
2022/04/07 02:32:04;;;;;;;19.13;3.20;;;;;;;8.34;100.00;98713.19;5052748;28;20096;-71
2022/04/07 02:34:29;;;;;;;22.00;3.55;;;;;;;8.36;100.00;98700.09;5052710;28;20484;-71
2022/04/07 02:36:55;;;;;;;15.13;2.78;;;;;;;8.37;100.00;98699.06;5052700;28;20075;-72
2022/04/07 02:39:20;;;;;;;16.40;3.00;;;;;;;8.48;100.00;98700.13;5051793;28;20040;-72
2022/04/07 02:41:46;;;;;;;21.88;3.97;;;;;;;8.50;99.52;98693.75;5052565;28;20021;-71
2022/04/07 02:44:11;;;;;;;17.02;3.08;;;;;;;8.52;99.50;98684.03;5052669;28;20067;-71
2022/04/07 02:46:37;;;;;;;21.60;3.35;;;;;;;8.64;98.00;98678.88;5052716;28;20029;-71
2022/04/07 02:49:03;;;;;;;21.48;4.03;;;;;;;8.69;96.82;98678.97;5052613;28;20028;-71
2022/04/07 02:51:31;;;;;;;18.30;3.40;;;;;;;8.73;96.92;98671.59;5052676;28;20472;-72
2022/04/07 02:53:58;;;;;;;26.42;4.07;;;;;;;8.70;96.59;98675.38;5052623;28;20432;-72
2022/04/07 02:56:27;;;;;;;25.02;3.40;;;;;;;8.79;96.42;98662.94;5051242;28;20024;-72
2022/04/07 02:58:53;;;;;;;17.95;3.15;;;;;;;8.71;96.79;98658.13;5052435;28;20429;-73
2022/04/07 03:01:19;;;;;;;25.10;3.60;;;;;;;8.75;96.58;98660.06;5051125;28;20104;-71
2022/04/07 03:03:44;;;;;;;15.43;3.28;;;;;;;8.74;95.69;98652.53;5053796;28;20071;-71
2022/04/07 03:06:10;;;;;;;20.90;3.50;;;;;;;8.79;94.82;98656.00;5055087;28;20365;-71
2022/04/07 03:08:35;;;;;;;17.15;3.28;;;;;;;8.84;93.98;98642.47;5056199;28;20040;-72
2022/04/07 03:11:01;;;;;;;16.15;2.92;;;;;;;8.86;93.81;98630.13;5056054;28;20104;-73
2022/04/07 03:13:27;;;;;;;29.70;3.45;;;;;;;8.83;94.30;98625.41;5056305;28;20029;-72
2022/04/07 03:15:53;;;;;;;21.17;3.75;;;;;;;8.82;94.51;98621.28;5054956;28;20418;-72
2022/04/07 03:18:18;;;;;;;17.70;2.80;;;;;;;8.77;94.49;98610.88;5056174;28;20082;-72
2022/04/07 03:20:43;;;;;;;21.10;3.28;;;;;;;8.84;94.70;98610.78;5060165;28;20488;-72
2022/04/07 03:23:08;;;;;;;23.50;3.75;;;;;;;8.86;94.37;98601.00;5054943;28;20043;-71
2022/04/07 03:25:34;;;;;;;27.58;3.30;;;;;;;8.84;94.16;98592.75;5056449;28;20108;-71
2022/04/07 03:27:59;;;;;;;25.00;4.47;;;;;;;8.81;94.79;98592.19;5056036;28;20033;-71
2022/04/07 03:30:24;;;;;;;24.90;3.42;;;;;;;8.75;94.69;98598.25;5054715;28;20364;-71
2022/04/07 03:32:50;;;;;;;26.05;3.25;;;;;;;8.72;95.86;98582.47;5055795;28;20023;-71
2022/04/07 03:35:16;;;;;;;19.58;3.92;;;;;;;8.75;96.12;98569.91;5055864;28;20025;-71
2022/04/07 03:37:41;;;;;;;27.20;4.53;;;;;;;8.78;95.84;98568.69;5054623;28;20498;-71
2022/04/07 03:40:08;;;;;;;19.45;3.65;;;;;;;8.75;95.54;98556.25;5055776;28;20017;-70
2022/04/07 03:42:33;;;;;;;26.20;3.75;;;;;;;8.80;95.08;98549.41;5055655;28;20075;-71
2022/04/07 03:44:58;;;;;;;26.23;3.80;;;;;;;8.70;95.84;98541.50;5055678;28;20029;-71
2022/04/07 03:47:23;;;;;;;30.80;4.60;;;;;;;8.68;96.34;98532.44;5055676;28;20108;-71
2022/04/07 03:49:49;;;;;;;24.77;3.38;;;;;;;8.69;95.86;98516.75;5054303;28;20522;-71
2022/04/07 03:52:15;;;;;;;22.33;3.92;;;;;;;8.69;96.06;98496.16;5055491;28;20052;-72
2022/04/07 03:54:40;;;;;;;23.17;3.45;;;;;;;8.74;95.69;98498.81;5054236;28;20021;-71
2022/04/07 03:57:06;;;;;;;25.45;3.42;;;;;;;8.73;96.24;98493.91;5054023;28;20056;-71
2022/04/07 03:59:37;;;;;;;17.75;3.10;;;;;;;8.62;95.47;98480.06;5054164;28;20120;-71
2022/04/07 04:02:05;;;;;;;16.33;3.00;;;;;;;8.59;96.95;98470.22;5055340;28;20032;-71
2022/04/07 04:04:30;;;;;;;28.77;3.60;;;;;;;8.53;98.24;98446.16;5037740;28;20075;-73
2022/04/07 04:06:55;;;;;;;19.48;3.00;;;;;;;8.51;97.59;98437.13;5055315;28;20056;-70
2022/04/07 04:09:20;;;;;;;22.20;3.33;;;;;;;8.51;98.38;98421.66;5055036;28;20488;-71
2022/04/07 04:11:46;;;;;;;24.08;3.40;;;;;;;8.44;98.82;98408.19;5055181;28;20043;-71
2022/04/07 04:14:11;;;;;;;20.23;2.95;;;;;;;8.43;99.77;98404.81;5054720;28;20032;-72
2022/04/07 04:16:36;;;;;;;22.77;3.33;;;;;;;8.41;99.52;98391.41;5055088;28;20365;-71
2022/04/07 04:19:01;;;;;;;23.73;3.58;;;;;;;8.40;98.89;98396.75;5055022;28;20025;-72
2022/04/07 04:21:27;;;;;;;19.80;3.75;;;;;;;8.43;99.90;98396.28;5054914;28;20396;-73
2022/04/07 04:23:52;;;;;;;27.98;3.60;;;;;;;8.48;98.55;98394.59;5054966;28;20029;-73
2022/04/07 04:26:17;;;;;;;19.58;3.35;;;;;;;8.48;98.40;98375.81;5054987;28;20036;-71
2022/04/07 04:28:43;;;;;;;23.15;3.40;;;;;;;8.48;98.68;98368.84;5020636;28;20029;-71
2022/04/07 04:31:08;;;;;;;22.48;3.67;;;;;;;8.48;97.87;98350.06;5054698;28;20031;-71
2022/04/07 04:33:33;;;;;;;20.75;3.63;;;;;;;8.52;98.22;98354.53;5054847;28;20064;-71
2022/04/07 04:35:59;;;;;;;20.85;3.60;;;;;;;8.51;97.29;98347.78;5053339;28;20025;-71
2022/04/07 04:38:24;;;;;;;18.92;3.13;;;;;;;8.44;97.65;98334.31;5054672;28;20025;-72
2022/04/07 04:40:49;;;;;;;22.55;3.75;;;;;;;8.53;97.63;98329.56;5053224;28;20028;-71
2022/04/07 04:43:14;;;;;;;12.38;2.75;;;;;;;8.49;97.40;98297.59;5054509;28;20116;-72
2022/04/07 04:45:40;;;;;;;18.00;3.28;;;;;;;8.50;97.17;98312.78;5054567;28;20074;-72
2022/04/07 04:48:05;;;;;;;21.23;3.58;;;;;;;8.50;97.16;98304.28;5054415;28;20064;-71
2022/04/07 04:50:30;;;;;;;13.75;2.60;;;;;;;8.46;97.02;98316.84;5054417;28;20028;-71
2022/04/07 04:52:56;;;;;;;14.77;3.08;;;;;;;8.46;97.52;98303.19;5052941;28;20025;-72
2022/04/07 04:55:21;;;;;;;11.90;2.50;;;;;;;8.48;97.12;98296.78;5054199;28;20028;-72
2022/04/07 04:57:46;;;;;;;13.32;3.05;;;;;;;8.47;96.50;98294.47;5054913;28;20021;-72
2022/04/07 05:00:12;;;;;;;15.73;2.28;;;;;;;8.44;97.24;98282.84;5052864;28;20025;-72
2022/04/07 05:02:39;;;;;;;12.43;2.20;;;;;;;8.41;97.81;98278.16;5052845;28;20017;-71
2022/04/07 05:05:06;;;;;;;9.20;2.08;;;;;;;8.32;97.54;98276.97;5052714;28;20031;-71
2022/04/07 05:07:32;;;;;;;13.75;2.92;;;;;;;8.35;97.60;98266.97;5054160;28;20491;-72
2022/04/07 05:09:57;;;;;;;13.63;2.50;;;;;;;8.39;97.10;98269.09;5054117;28;20090;-72
2022/04/07 05:12:22;;;;;;;20.35;2.67;;;;;;;8.40;96.84;98268.88;5052627;28;20460;-71
2022/04/07 05:14:47;;;;;;;13.18;2.75;;;;;;;8.36;96.69;98240.22;5052651;28;20021;-72
2022/04/07 05:17:12;;;;;;;12.57;2.83;;;;;;;8.36;97.81;98275.47;5036141;28;20029;-72
2022/04/07 05:19:38;;;;;;;10.30;2.35;;;;;;;8.52;97.48;98245.63;5054067;28;20033;-72
2022/04/07 05:22:04;;;;;;;9.43;2.20;;;;;;;8.38;97.27;98252.09;5055236;28;20055;-71
2022/04/07 05:24:29;;;;;;;14.25;2.83;;;;;;;8.33;97.32;98234.75;5020139;28;20033;-71
2022/04/07 05:26:54;;;;;;;12.57;2.85;;;;;;;8.32;98.33;98228.84;5053339;28;20029;-71
2022/04/07 05:29:19;;;;;;;12.55;2.58;;;;;;;8.36;98.56;98221.44;5065725;28;20017;-72
2022/04/07 05:31:45;;;;;;;12.32;2.50;;;;;;;8.27;99.12;98231.31;5056075;28;20033;-72
2022/04/07 05:34:10;;;;;;;6.70;2.15;;;;;;;8.24;99.56;98259.31;5050392;28;20063;-72
2022/04/07 05:36:35;;;;;;;9.35;2.20;;;;;;;8.25;100.00;98305.38;5052479;28;20024;-72
2022/04/07 05:39:01;;;;;;;6.70;1.40;;;;;;;7.28;95.69;98403.78;5053071;28;20134;-72
2022/04/07 05:41:26;;;;;;;2.55;0.55;;;;;;;6.14;94.62;98395.34;5034384;28;20024;-72
2022/04/07 05:43:51;;;;;;;4.68;1.08;;;;;;;5.06;93.35;98404.25;5035559;28;20065;-71
2022/04/07 05:46:16;;;;;;;4.93;0.90;;;;;;;4.36;95.56;98394.84;5053307;28;20056;-71
2022/04/07 05:48:42;;;;;;;4.53;0.82;;;;;;;4.17;96.23;98404.19;5052469;28;20074;-71
2022/04/07 05:51:07;;;;;;;5.35;0.98;;;;;;;4.35;97.11;98395.06;5049455;28;20115;-71
2022/04/07 05:53:32;;;;;;;4.80;0.93;;;;;;;4.36;97.87;98376.94;5052372;28;20431;-72
2022/04/07 05:55:58;;;;;;;3.63;0.85;;;;;;;4.39;97.84;98381.66;5052275;28;20060;-72
2022/04/07 05:58:24;;;;;;;4.25;0.85;;;;;;;4.48;98.80;98400.09;5051213;28;20033;-71
2022/04/07 06:00:49;;;;;;;6.25;1.40;;;;;;;4.59;99.00;98389.22;5051825;28;20111;-71
2022/04/07 06:03:14;;;;;;;9.65;1.33;;;;;;;4.75;98.33;98380.28;5033384;28;20094;-72
2022/04/07 06:05:40;;;;;;;6.82;1.50;;;;;;;4.73;99.29;98372.00;5051286;28;20025;-72
2022/04/07 06:08:05;;;;;;;6.47;1.48;;;;;;;4.69;99.55;98371.66;5053540;28;20041;-71
2022/04/07 06:10:31;;;;;;;6.15;1.52;;;;;;;4.75;99.56;98358.03;5051460;28;20032;-72
2022/04/07 06:12:56;;;;;;;11.05;1.75;;;;;;;4.91;99.54;98369.50;5049637;28;20373;-72
2022/04/07 06:15:21;;;;;;;7.93;1.98;;;;;;;4.82;98.86;98367.41;5049622;28;20028;-71
2022/04/07 06:17:47;;;;;;;10.45;1.40;;;;;;;4.83;100.00;98363.88;5051043;28;20028;-72
2022/04/07 06:20:14;;;;;;;4.53;1.25;;;;;;;4.81;99.73;98361.53;5050201;28;20024;-71
2022/04/07 06:22:40;;;;;;;9.10;1.42;;;;;;;4.94;100.00;98366.53;5049682;28;20423;-72
2022/04/07 06:25:06;;;;;;;6.72;1.50;;;;;;;5.00;100.00;98371.81;5052288;28;20480;-71
2022/04/07 06:27:41;;;;;;;7.80;1.90;;;;;;;4.99;99.96;98353.13;5052691;28;20029;-72
2022/04/07 06:30:09;;;;;;;9.38;1.83;;;;;;;5.09;99.78;98340.63;5051230;28;20051;-72
2022/04/07 06:32:35;;;;;;;7.78;1.33;;;;;;;5.13;100.00;98325.63;5050641;28;20021;-72
2022/04/07 06:35:01;;;;;;;15.75;2.13;;;;;;;5.19;99.98;98325.56;5056016;28;20017;-72
2022/04/07 06:37:26;;;;;;;8.05;1.20;;;;;;;5.32;100.00;98301.63;5053429;28;20048;-71
2022/04/07 06:39:58;;;;;;;10.73;2.05;;;;;;;5.34;99.77;98291.13;5022725;28;20094;-71
2022/04/07 06:42:23;;;;;;;10.38;1.88;;;;;;;5.43;99.69;98285.50;5056731;28;20092;-72
2022/04/07 06:44:51;;;;;;;11.23;2.00;;;;;;;5.60;99.85;98279.81;5055760;28;20064;-71
2022/04/07 06:47:16;;;;;;;11.82;1.60;;;;;;;5.66;99.45;98291.75;5057317;28;20435;-71
2022/04/07 06:49:41;;;;;;;9.40;1.60;;;;;;;5.70;99.73;98289.53;5057014;28;20033;-72
2022/04/07 06:52:07;;;;;;;8.30;1.60;;;;;;;5.70;99.12;98277.53;5056346;28;20036;-72
2022/04/07 06:54:32;;;;;;;8.77;1.33;;;;;;;5.74;99.44;98277.88;5039317;28;20094;-72
2022/04/07 06:56:58;;;;;;;12.45;1.88;;;;;;;5.72;98.19;98264.50;5038557;28;20024;-71
2022/04/07 06:59:23;;;;;;;6.47;1.45;;;;;;;5.77;98.20;98267.19;5055146;28;20025;-71
2022/04/07 07:01:48;;;;;;;10.98;1.70;;;;;;;5.75;96.93;98252.03;5037609;28;20035;-72
2022/04/07 07:04:13;;;;;;;6.53;1.33;;;;;;;5.81;96.57;98255.50;5054690;28;20409;-71
2022/04/07 07:06:39;;;;;;;9.38;1.70;;;;;;;5.94;97.39;98262.28;5055074;28;20033;-71
2022/04/07 07:09:04;;;;;;;6.00;1.13;;;;;;;5.73;97.05;98268.63;5056105;28;20089;-71
2022/04/07 07:11:29;;;;;;;8.43;1.40;;;;;;;5.74;97.58;98265.84;5056216;28;20021;-72
2022/04/07 07:13:54;;;;;;;5.55;1.08;;;;;;;5.73;97.54;98269.41;5058700;28;20170;-71
2022/04/07 07:16:20;;;;;;;4.43;0.98;;;;;;;5.73;96.18;98251.47;5053419;28;20017;-71
2022/04/07 07:18:45;;;;;;;5.18;0.98;;;;;;;5.72;96.00;98244.00;5055163;28;20013;-72
2022/04/07 07:21:10;;;;;;;4.45;0.93;;;;;;;5.72;96.26;98236.31;5054686;28;20104;-71
2022/04/07 07:23:35;;;;;;;8.07;1.33;;;;;;;5.81;96.42;98227.31;5055206;28;20078;-72
2022/04/07 07:26:01;;;;;;;7.93;1.40;;;;;;;5.71;96.88;98222.72;5058337;28;20384;-73
2022/04/07 07:28:26;;;;;;;5.75;1.00;;;;;;;5.77;96.52;98221.84;5055617;28;20036;-72
2022/04/07 07:30:51;;;;;;;7.53;1.20;;;;;;;5.84;96.56;98206.38;5055982;28;20017;-72
2022/04/07 07:33:17;;;;;;;7.05;1.08;;;;;;;6.01;97.14;98196.28;5056154;28;20384;-72
2022/04/07 07:35:43;;;;;;;7.28;1.35;;;;;;;5.94;96.41;98168.22;5055496;28;20029;-72
2022/04/07 07:38:08;;;;;;;7.55;1.10;;;;;;;5.84;95.44;98143.09;5055807;28;20477;-73
2022/04/07 07:40:35;;;;;;;3.95;1.00;;;;;;;6.01;96.21;98153.53;5055510;28;20028;-72
2022/04/07 07:43:01;;;;;;;6.07;1.40;;;;;;;5.85;96.21;98139.53;5055393;28;20476;-72
2022/04/07 07:45:33;;;;;;;5.38;1.40;;;;;;;6.03;96.74;98150.72;5054505;28;20610;-72
2022/04/07 07:47:58;;;;;;;4.90;1.20;;;;;;;6.05;95.51;98152.06;5054531;28;20025;-73
2022/04/07 07:50:24;;;;;;;6.60;1.38;;;;;;;6.30;95.18;98144.16;5053640;28;20017;-72
2022/04/07 07:52:50;;;;;;;5.18;1.15;;;;;;;6.46;94.86;98140.13;5054116;28;20029;-71
2022/04/07 07:55:16;;;;;;;6.10;1.20;;;;;;;6.58;94.11;98145.25;5054858;28;20104;-73
2022/04/07 07:57:41;;;;;;;4.82;1.10;;;;;;;7.08;91.93;98137.03;5051977;28;20111;-72
2022/04/07 08:00:09;;;;;;;2.78;0.98;;;;;;;7.24;90.69;98136.28;5052762;28;20194;-72
2022/04/07 08:02:36;;;;;;;3.92;1.10;;;;;;;7.17;92.17;98137.44;5056250;28;20089;-73
2022/04/07 08:05:02;;;;;;;5.75;1.40;;;;;;;7.17;91.74;98134.88;5054002;28;20036;-73
2022/04/07 08:07:28;;;;;;;6.55;1.45;;;;;;;9.56;83.12;98141.78;5036523;28;20025;-73
2022/04/07 08:09:56;;;;;;;7.38;1.40;;;;;;;10.54;75.82;98153.59;5055371;28;20488;-73
2022/04/07 08:12:23;;;;;;;4.32;1.25;;;;;;;12.27;70.62;98144.63;5057026;28;20064;-71
2022/04/07 08:14:48;;;;;;;5.78;1.10;;;;;;;13.92;64.06;98143.56;5054257;28;20031;-72
2022/04/07 08:17:14;;;;;;;6.88;1.20;;;;;;;14.48;64.77;98132.66;5055762;28;20397;-72
2022/04/07 08:19:40;;;;;;;5.80;1.20;;;;;;;15.22;61.96;98130.50;5053799;28;20096;-73
2022/04/07 08:22:06;;;;;;;8.27;1.52;;;;;;;15.19;59.15;98128.44;5057411;28;20029;-73
2022/04/07 08:24:31;;;;;;;4.22;1.17;;;;;;;15.55;57.48;98141.72;5020755;28;20025;-73
2022/04/07 08:26:56;;;;;;;5.20;1.33;;;;;;;14.37;62.68;98134.59;5055252;28;20055;-73
2022/04/07 08:29:22;;;;;;;7.38;1.60;;;;;;;14.58;60.31;98135.16;5058067;28;20024;-73
2022/04/07 08:31:51;;;;;;;8.10;1.80;;;;;;;15.69;59.70;98139.19;5054878;28;20041;-74
2022/04/07 08:34:17;;;;;;;5.35;1.40;;;;;;;16.21;56.30;98136.50;5040256;28;20499;-72
2022/04/07 08:36:42;;;;;;;5.05;1.17;;;;;;;13.86;63.02;98135.03;5056635;28;20045;-72
2022/04/07 08:39:07;;;;;;;8.50;1.48;;;;;;;13.38;64.94;98131.50;5059642;28;20100;-74
2022/04/07 08:41:34;;;;;;;3.70;1.20;;;;;;;12.55;66.82;98133.69;5059642;28;20194;-74
2022/04/07 08:43:59;;;;;;;8.07;1.48;;;;;;;13.85;67.49;98132.75;5054076;28;20041;-73
2022/04/07 08:46:26;;;;;;;9.85;1.52;;;;;;;12.07;71.54;98125.50;5037402;28;20031;-73
2022/04/07 08:48:54;;;;;;;6.75;1.52;;;;;;;13.97;65.25;98136.50;5053251;28;20163;-74
2022/04/07 08:51:19;;;;;;;6.75;1.42;;;;;;;12.25;68.91;98128.56;5054211;28;20381;-74
2022/04/07 08:53:46;;;;;;;12.65;1.77;;;;;;;12.63;68.98;98127.97;5053735;28;20036;-74
2022/04/07 08:56:11;;;;;;;7.40;1.38;;;;;;;12.17;71.37;98124.72;5055422;28;20035;-74
2022/04/07 08:58:37;;;;;;;8.57;2.10;;;;;;;11.40;71.56;98127.28;5053124;28;20399;-73
2022/04/07 09:01:02;;;;;;;7.75;1.48;;;;;;;10.87;74.18;98131.78;5053289;28;20067;-73
2022/04/07 09:03:28;;;;;;;12.20;1.45;;;;;;;10.14;76.13;98145.31;5052886;28;20025;-73
2022/04/07 09:05:55;;;;;;;9.10;1.55;;;;;;;10.04;78.87;98134.94;5054124;28;20032;-72
2022/04/07 09:08:27;;;;;;;7.47;1.60;;;;;;;10.10;79.98;98128.78;5036441;28;20098;-72
2022/04/07 09:10:56;;;;;;;7.90;1.67;;;;;;;10.50;76.84;98139.63;5054129;28;20029;-73
2022/04/07 09:13:22;;;;;;;15.20;1.92;;;;;;;10.68;73.63;98154.69;5054487;28;20036;-73
2022/04/07 09:15:49;;;;;;;10.73;2.30;;;;;;;10.30;73.10;98159.16;5053977;28;20021;-75
2022/04/07 09:18:24;;;;;;;10.95;1.80;;;;;;;10.05;69.77;98146.03;5058061;28;20055;-75
2022/04/07 09:20:49;;;;;;;9.23;1.98;;;;;;;10.42;71.60;98153.78;5058433;28;20028;-74
2022/04/07 09:23:17;;;;;;;11.50;1.83;;;;;;;10.93;69.11;98146.25;5061759;28;20025;-77
2022/04/07 09:25:49;;;;;;;13.55;2.08;;;;;;;11.18;69.53;98137.06;5053875;28;20088;-74
2022/04/07 09:28:30;;;;;;;17.05;2.20;;;;;;;11.44;68.36;98168.91;5053839;28;20029;-72
2022/04/07 09:30:57;;;;;;;13.45;2.10;;;;;;;12.14;60.33;98156.28;5052298;28;20040;-73
2022/04/07 09:33:24;;;;;;;7.47;1.50;;;;;;;11.79;65.39;98162.22;5053573;28;20029;-73
2022/04/07 09:36:07;;;;;;;14.20;1.98;;;;;;;11.92;64.03;98153.97;5053272;28;20028;-73
2022/04/07 09:38:34;;;;;;;11.68;2.00;;;;;;;11.62;64.44;98147.72;5053215;28;20103;-72
2022/04/07 09:41:06;;;;;;;10.60;2.10;;;;;;;11.30;68.71;98176.38;5052181;28;20025;-73
2022/04/07 09:43:45;;;;;;;14.17;2.80;;;;;;;11.73;62.97;98174.38;5053716;28;20053;-73
2022/04/07 09:46:18;;;;;;;14.93;2.25;;;;;;;10.93;65.50;98158.41;5052832;28;20036;-74
2022/04/07 09:49:09;;;;;;;10.65;2.17;;;;;;;10.35;66.21;98174.63;5055844;28;20538;-72
2022/04/07 09:51:46;;;;;;;15.30;2.33;;;;;;;10.60;69.71;98163.69;5054062;28;20017;-73
2022/04/07 09:54:13;;;;;;;10.70;1.95;;;;;;;10.38;69.55;98183.69;5055445;28;20104;-74
2022/04/07 09:56:39;;;;;;;15.00;2.00;;;;;;;9.93;70.67;98161.69;5053659;28;20074;-74
2022/04/07 09:59:08;;;;;;;9.80;1.80;;;;;;;10.17;69.39;98167.28;5054757;28;20029;-73
2022/04/07 10:01:38;;;;;;;13.35;2.10;;;;;;;9.90;70.38;98175.06;5052811;28;20063;-74
2022/04/07 10:04:04;;;;;;;13.23;1.90;;;;;;;10.13;69.66;98176.53;5050512;28;20119;-74
2022/04/07 10:06:32;;;;;;;20.52;2.42;;;;;;;10.12;68.37;98193.81;5052887;28;20017;-74
2022/04/07 10:09:02;;;;;;;15.52;2.13;;;;;;;9.96;70.05;98171.50;5052658;28;20041;-74
2022/04/07 10:11:30;;;;;;;11.13;2.00;;;;;;;9.86;67.63;98185.09;5051766;28;20029;-74
2022/04/07 10:13:56;;;;;;;11.30;1.75;;;;;;;9.83;68.76;98190.75;5034516;28;20032;-73
2022/04/07 10:16:22;;;;;;;9.70;1.75;;;;;;;9.75;71.53;98196.34;5051137;28;20432;-73
2022/04/07 10:19:03;;;;;;;7.82;1.67;;;;;;;9.89;67.50;98192.34;5061296;28;20107;-74
2022/04/07 10:21:43;;;;;;;12.15;1.75;;;;;;;9.92;71.44;98194.41;5052906;28;20542;-74
2022/04/07 10:24:25;;;;;;;14.20;1.98;;;;;;;9.77;71.71;98178.06;5051898;28;20049;-74
2022/04/07 10:26:51;;;;;;;11.60;1.98;;;;;;;9.57;71.00;98192.31;5053177;28;20024;-74
2022/04/07 10:29:23;;;;;;;16.13;2.35;;;;;;;9.38;71.52;98202.19;5051614;28;20029;-74
2022/04/07 10:32:19;;;;;;;15.43;2.13;;;;;;;9.39;70.22;98208.88;5052822;28;20056;-75
2022/04/07 10:34:58;;;;;;;18.88;2.70;;;;;;;9.48;72.67;98215.16;5052692;28;20025;-74
2022/04/07 10:37:43;;;;;;;20.83;2.67;;;;;;;9.41;70.23;98213.81;5052729;28;20492;-73
2022/04/07 10:40:50;;;;;;;15.80;2.10;;;;;;;9.34;73.05;98202.88;5033610;28;20020;-74
2022/04/07 10:43:27;;;;;;;14.45;2.78;;;;;;;9.54;69.89;98210.84;5035176;28;20546;-73
2022/04/07 10:46:09;;;;;;;13.40;2.30;;;;;;;9.45;69.88;98207.91;5053108;28;20017;-77
2022/04/07 10:49:04;;;;;;;17.92;2.67;;;;;;;9.62;69.08;98210.41;5054257;28;20548;-73
2022/04/07 10:51:51;;;;;;;14.10;2.17;;;;;;;9.68;67.96;98198.34;5041118;28;20548;-73
2022/04/07 10:54:16;;;;;;;13.82;2.38;;;;;;;10.01;68.12;98212.03;5020859;28;20052;-73
2022/04/07 10:56:49;;;;;;;14.88;2.55;;;;;;;9.78;70.05;98219.09;5055281;28;20364;-73
2022/04/07 10:59:21;;;;;;;18.27;2.65;;;;;;;9.70;68.47;98209.97;5035668;28;20033;-74
2022/04/07 11:01:46;;;;;;;17.20;2.65;;;;;;;9.96;70.48;98220.53;5052108;28;20480;-72
2022/04/07 11:04:20;;;;;;;18.23;2.80;;;;;;;9.87;70.53;98214.25;5053239;28;20025;-73
2022/04/07 11:07:19;;;;;;;20.75;2.92;;;;;;;10.72;67.56;98225.47;5053728;28;20362;-73
2022/04/07 11:09:57;;;;;;;15.23;2.65;;;;;;;10.76;67.42;98223.97;5053751;28;20037;-74
2022/04/07 11:12:28;;;;;;;14.45;2.65;;;;;;;10.71;66.28;98208.44;5059338;28;20078;-73
2022/04/07 11:15:13;;;;;;;16.50;2.83;;;;;;;10.39;66.68;98222.19;5060312;28;20488;-73
2022/04/07 11:17:41;;;;;;;14.60;2.60;;;;;;;10.33;67.74;98217.25;5053676;28;20059;-73
2022/04/07 11:20:09;;;;;;;13.65;2.20;;;;;;;10.23;67.33;98223.06;5053171;28;20033;-74
2022/04/07 11:23:04;;;;;;;12.48;2.67;;;;;;;10.92;64.02;98217.06;5052103;28;20025;-74
2022/04/07 11:25:36;;;;;;;13.48;2.20;;;;;;;12.46;63.20;98225.94;5051245;28;20144;-74
2022/04/07 11:28:15;;;;;;;11.73;2.47;;;;;;;11.87;60.02;98206.50;5054896;28;20029;-74
2022/04/07 11:30:54;;;;;;;15.20;2.58;;;;;;;11.74;59.97;98227.69;5054930;28;20036;-74
2022/04/07 11:33:19;;;;;;;15.60;2.50;;;;;;;12.56;61.31;98223.31;5038867;28;20033;-72
2022/04/07 11:36:00;;;;;;;18.23;2.97;;;;;;;12.52;59.93;98229.28;5055306;28;20047;-73